sensor_id;sensor_type;location;lat;lon;timestamp;P1;durP1;ratioP1;P2;durP2;ratioP2
11238;SDS011;5677;48.488;13.436;2023-07-31T00:00:45;3.90;;;2.03;;
11238;SDS011;5677;48.488;13.436;2023-07-31T00:03:12;2.53;;;1.93;;
11238;SDS011;5677;48.488;13.436;2023-07-31T00:05:38;3.50;;;1.90;;
11238;SDS011;5677;48.488;13.436;2023-07-31T00:08:06;1.53;;;1.43;;
11238;SDS011;5677;48.488;13.436;2023-07-31T00:10:33;1.97;;;1.60;;
11238;SDS011;5677;48.488;13.436;2023-07-31T00:13:00;2.00;;;1.80;;
11238;SDS011;5677;48.488;13.436;2023-07-31T00:15:27;4.10;;;1.80;;
11238;SDS011;5677;48.488;13.436;2023-07-31T00:17:53;1.90;;;1.77;;
11238;SDS011;5677;48.488;13.436;2023-07-31T00:20:20;2.00;;;1.80;;
11238;SDS011;5677;48.488;13.436;2023-07-31T00:22:47;2.37;;;1.60;;
11238;SDS011;5677;48.488;13.436;2023-07-31T00:25:15;7.47;;;1.70;;
11238;SDS011;5677;48.488;13.436;2023-07-31T00:27:42;2.40;;;1.90;;
11238;SDS011;5677;48.488;13.436;2023-07-31T00:30:11;2.47;;;1.80;;
11238;SDS011;5677;48.488;13.436;2023-07-31T00:32:37;1.90;;;1.63;;
11238;SDS011;5677;48.488;13.436;2023-07-31T00:35:04;2.37;;;1.90;;
11238;SDS011;5677;48.488;13.436;2023-07-31T00:37:31;3.90;;;1.80;;
11238;SDS011;5677;48.488;13.436;2023-07-31T00:39:58;2.87;;;1.87;;
11238;SDS011;5677;48.488;13.436;2023-07-31T00:42:26;1.90;;;1.70;;
11238;SDS011;5677;48.488;13.436;2023-07-31T00:44:53;2.63;;;1.40;;
11238;SDS011;5677;48.488;13.436;2023-07-31T00:47:20;2.57;;;1.90;;
11238;SDS011;5677;48.488;13.436;2023-07-31T00:49:46;2.27;;;1.73;;
11238;SDS011;5677;48.488;13.436;2023-07-31T00:52:14;2.93;;;1.70;;
11238;SDS011;5677;48.488;13.436;2023-07-31T00:54:41;5.07;;;2.20;;
11238;SDS011;5677;48.488;13.436;2023-07-31T00:57:08;1.90;;;1.70;;
11238;SDS011;5677;48.488;13.436;2023-07-31T00:59:36;1.77;;;1.63;;
11238;SDS011;5677;48.488;13.436;2023-07-31T01:02:03;1.83;;;1.67;;
11238;SDS011;5677;48.488;13.436;2023-07-31T01:04:31;1.50;;;1.40;;
11238;SDS011;5677;48.488;13.436;2023-07-31T01:07:00;1.77;;;1.57;;
11238;SDS011;5677;48.488;13.436;2023-07-31T01:09:33;5.60;;;1.63;;
11238;SDS011;5677;48.488;13.436;2023-07-31T01:12:04;2.00;;;1.70;;
11238;SDS011;5677;48.488;13.436;2023-07-31T01:14:33;2.00;;;1.77;;
11238;SDS011;5677;48.488;13.436;2023-07-31T01:17:01;1.83;;;1.73;;
11238;SDS011;5677;48.488;13.436;2023-07-31T01:19:28;2.73;;;1.57;;
11238;SDS011;5677;48.488;13.436;2023-07-31T01:22:03;1.77;;;1.63;;
11238;SDS011;5677;48.488;13.436;2023-07-31T01:24:52;1.93;;;1.73;;
11238;SDS011;5677;48.488;13.436;2023-07-31T01:27:26;2.03;;;1.60;;
11238;SDS011;5677;48.488;13.436;2023-07-31T01:29:58;2.43;;;1.80;;
11238;SDS011;5677;48.488;13.436;2023-07-31T01:32:35;4.03;;;1.57;;
11238;SDS011;5677;48.488;13.436;2023-07-31T01:35:04;2.70;;;1.90;;
11238;SDS011;5677;48.488;13.436;2023-07-31T01:37:32;1.87;;;1.53;;
11238;SDS011;5677;48.488;13.436;2023-07-31T01:39:59;2.10;;;1.70;;
11238;SDS011;5677;48.488;13.436;2023-07-31T01:45:48;1.97;;;1.73;;
11238;SDS011;5677;48.488;13.436;2023-07-31T01:48:15;1.73;;;1.50;;
11238;SDS011;5677;48.488;13.436;2023-07-31T01:50:42;1.77;;;1.53;;
11238;SDS011;5677;48.488;13.436;2023-07-31T01:53:08;4.27;;;1.73;;
11238;SDS011;5677;48.488;13.436;2023-07-31T01:55:37;2.97;;;1.57;;
11238;SDS011;5677;48.488;13.436;2023-07-31T01:58:03;2.10;;;1.30;;
11238;SDS011;5677;48.488;13.436;2023-07-31T02:00:30;2.00;;;1.67;;
11238;SDS011;5677;48.488;13.436;2023-07-31T02:02:58;3.10;;;1.70;;
11238;SDS011;5677;48.488;13.436;2023-07-31T02:05:25;1.73;;;1.63;;
11238;SDS011;5677;48.488;13.436;2023-07-31T02:07:52;1.50;;;1.27;;
11238;SDS011;5677;48.488;13.436;2023-07-31T02:10:19;1.70;;;1.60;;
11238;SDS011;5677;48.488;13.436;2023-07-31T02:12:45;2.23;;;1.73;;
11238;SDS011;5677;48.488;13.436;2023-07-31T02:15:12;2.20;;;1.90;;
11238;SDS011;5677;48.488;13.436;2023-07-31T02:17:39;1.80;;;1.70;;
11238;SDS011;5677;48.488;13.436;2023-07-31T02:20:08;1.97;;;1.70;;
11238;SDS011;5677;48.488;13.436;2023-07-31T02:25:57;3.20;;;1.63;;
11238;SDS011;5677;48.488;13.436;2023-07-31T02:28:23;1.90;;;1.70;;
11238;SDS011;5677;48.488;13.436;2023-07-31T02:30:50;2.63;;;1.50;;
11238;SDS011;5677;48.488;13.436;2023-07-31T02:33:17;1.90;;;1.60;;
11238;SDS011;5677;48.488;13.436;2023-07-31T02:35:45;2.27;;;1.60;;
11238;SDS011;5677;48.488;13.436;2023-07-31T02:38:12;2.97;;;1.63;;
11238;SDS011;5677;48.488;13.436;2023-07-31T02:40:39;3.10;;;1.60;;
11238;SDS011;5677;48.488;13.436;2023-07-31T02:43:07;2.80;;;1.70;;
11238;SDS011;5677;48.488;13.436;2023-07-31T02:45:34;3.63;;;1.63;;
11238;SDS011;5677;48.488;13.436;2023-07-31T02:48:00;2.13;;;1.70;;
11238;SDS011;5677;48.488;13.436;2023-07-31T02:50:27;1.70;;;1.57;;
11238;SDS011;5677;48.488;13.436;2023-07-31T02:52:55;1.77;;;1.67;;
11238;SDS011;5677;48.488;13.436;2023-07-31T02:55:22;2.87;;;1.53;;
11238;SDS011;5677;48.488;13.436;2023-07-31T02:57:49;1.80;;;1.60;;
11238;SDS011;5677;48.488;13.436;2023-07-31T03:00:17;2.63;;;1.67;;
11238;SDS011;5677;48.488;13.436;2023-07-31T03:02:44;1.70;;;1.60;;
11238;SDS011;5677;48.488;13.436;2023-07-31T03:05:11;2.83;;;1.60;;
11238;SDS011;5677;48.488;13.436;2023-07-31T03:07:37;1.90;;;1.50;;
11238;SDS011;5677;48.488;13.436;2023-07-31T03:10:06;2.17;;;1.67;;
11238;SDS011;5677;48.488;13.436;2023-07-31T03:12:33;2.37;;;1.60;;
11238;SDS011;5677;48.488;13.436;2023-07-31T03:15:00;1.50;;;1.40;;
11238;SDS011;5677;48.488;13.436;2023-07-31T03:17:27;1.73;;;1.50;;
11238;SDS011;5677;48.488;13.436;2023-07-31T03:19:54;1.40;;;1.30;;
11238;SDS011;5677;48.488;13.436;2023-07-31T03:22:20;2.03;;;1.40;;
11238;SDS011;5677;48.488;13.436;2023-07-31T03:24:47;1.60;;;1.50;;
11238;SDS011;5677;48.488;13.436;2023-07-31T03:27:15;2.33;;;1.53;;
11238;SDS011;5677;48.488;13.436;2023-07-31T03:29:42;3.53;;;1.50;;
11238;SDS011;5677;48.488;13.436;2023-07-31T03:32:09;1.77;;;1.40;;
11238;SDS011;5677;48.488;13.436;2023-07-31T03:34:35;2.83;;;1.60;;
11238;SDS011;5677;48.488;13.436;2023-07-31T03:37:02;6.03;;;1.60;;
11238;SDS011;5677;48.488;13.436;2023-07-31T03:39:30;1.57;;;1.40;;
11238;SDS011;5677;48.488;13.436;2023-07-31T03:41:56;4.20;;;1.60;;
11238;SDS011;5677;48.488;13.436;2023-07-31T03:44:24;1.83;;;1.47;;
11238;SDS011;5677;48.488;13.436;2023-07-31T03:46:51;1.90;;;1.60;;
11238;SDS011;5677;48.488;13.436;2023-07-31T03:49:18;3.40;;;1.57;;
11238;SDS011;5677;48.488;13.436;2023-07-31T03:51:45;2.97;;;1.40;;
11238;SDS011;5677;48.488;13.436;2023-07-31T03:54:12;4.43;;;1.57;;
11238;SDS011;5677;48.488;13.436;2023-07-31T03:56:39;1.67;;;1.50;;
11238;SDS011;5677;48.488;13.436;2023-07-31T03:59:07;2.33;;;1.77;;
11238;SDS011;5677;48.488;13.436;2023-07-31T04:01:35;1.83;;;1.60;;
11238;SDS011;5677;48.488;13.436;2023-07-31T04:04:01;1.57;;;1.43;;
11238;SDS011;5677;48.488;13.436;2023-07-31T04:06:28;1.73;;;1.37;;
11238;SDS011;5677;48.488;13.436;2023-07-31T04:08:55;1.77;;;1.37;;
11238;SDS011;5677;48.488;13.436;2023-07-31T04:11:22;5.57;;;1.40;;
11238;SDS011;5677;48.488;13.436;2023-07-31T04:13:48;1.73;;;1.53;;
11238;SDS011;5677;48.488;13.436;2023-07-31T04:16:15;1.50;;;1.40;;
11238;SDS011;5677;48.488;13.436;2023-07-31T04:18:43;1.60;;;1.43;;
11238;SDS011;5677;48.488;13.436;2023-07-31T04:21:10;2.07;;;1.50;;
11238;SDS011;5677;48.488;13.436;2023-07-31T04:23:37;3.73;;;1.60;;
11238;SDS011;5677;48.488;13.436;2023-07-31T04:26:04;1.40;;;1.30;;
11238;SDS011;5677;48.488;13.436;2023-07-31T04:28:30;1.33;;;1.23;;
11238;SDS011;5677;48.488;13.436;2023-07-31T04:30:57;2.30;;;1.57;;
11238;SDS011;5677;48.488;13.436;2023-07-31T04:33:24;2.20;;;1.40;;
11238;SDS011;5677;48.488;13.436;2023-07-31T04:35:52;2.07;;;1.70;;
11238;SDS011;5677;48.488;13.436;2023-07-31T04:38:20;3.47;;;1.50;;
11238;SDS011;5677;48.488;13.436;2023-07-31T04:40:48;4.77;;;1.53;;
11238;SDS011;5677;48.488;13.436;2023-07-31T04:43:14;3.10;;;1.60;;
11238;SDS011;5677;48.488;13.436;2023-07-31T04:45:42;1.53;;;1.43;;
11238;SDS011;5677;48.488;13.436;2023-07-31T04:48:12;1.40;;;1.30;;
11238;SDS011;5677;48.488;13.436;2023-07-31T04:50:39;3.40;;;1.60;;
11238;SDS011;5677;48.488;13.436;2023-07-31T04:53:07;2.30;;;1.47;;
11238;SDS011;5677;48.488;13.436;2023-07-31T04:55:34;1.97;;;1.50;;
11238;SDS011;5677;48.488;13.436;2023-07-31T04:58:00;3.80;;;1.37;;
11238;SDS011;5677;48.488;13.436;2023-07-31T05:00:27;1.63;;;1.50;;
11238;SDS011;5677;48.488;13.436;2023-07-31T05:02:54;3.07;;;1.53;;
11238;SDS011;5677;48.488;13.436;2023-07-31T05:05:21;4.43;;;1.57;;
11238;SDS011;5677;48.488;13.436;2023-07-31T05:07:48;2.23;;;1.53;;
11238;SDS011;5677;48.488;13.436;2023-07-31T05:10:16;3.93;;;1.40;;
11238;SDS011;5677;48.488;13.436;2023-07-31T05:12:43;2.60;;;1.70;;
11238;SDS011;5677;48.488;13.436;2023-07-31T05:15:09;2.17;;;1.63;;
11238;SDS011;5677;48.488;13.436;2023-07-31T05:17:36;6.37;;;1.53;;
11238;SDS011;5677;48.488;13.436;2023-07-31T05:20:03;2.70;;;1.50;;
11238;SDS011;5677;48.488;13.436;2023-07-31T05:22:31;2.27;;;1.47;;
11238;SDS011;5677;48.488;13.436;2023-07-31T05:24:57;2.43;;;1.53;;
11238;SDS011;5677;48.488;13.436;2023-07-31T05:27:26;3.23;;;1.70;;
11238;SDS011;5677;48.488;13.436;2023-07-31T05:29:53;5.10;;;1.70;;
11238;SDS011;5677;48.488;13.436;2023-07-31T05:32:19;5.37;;;1.80;;
11238;SDS011;5677;48.488;13.436;2023-07-31T05:34:46;2.63;;;1.10;;
11238;SDS011;5677;48.488;13.436;2023-07-31T05:37:13;3.13;;;1.50;;
11238;SDS011;5677;48.488;13.436;2023-07-31T05:39:40;3.53;;;1.60;;
11238;SDS011;5677;48.488;13.436;2023-07-31T05:42:06;3.07;;;1.37;;
11238;SDS011;5677;48.488;13.436;2023-07-31T05:44:35;2.10;;;1.40;;
11238;SDS011;5677;48.488;13.436;2023-07-31T05:47:01;2.17;;;1.50;;
11238;SDS011;5677;48.488;13.436;2023-07-31T05:49:28;3.70;;;1.40;;
11238;SDS011;5677;48.488;13.436;2023-07-31T05:51:55;3.80;;;1.60;;
11238;SDS011;5677;48.488;13.436;2023-07-31T05:54:22;4.03;;;1.37;;
11238;SDS011;5677;48.488;13.436;2023-07-31T05:56:48;2.70;;;1.50;;
11238;SDS011;5677;48.488;13.436;2023-07-31T05:59:15;5.70;;;2.17;;
11238;SDS011;5677;48.488;13.436;2023-07-31T06:01:44;3.00;;;1.80;;
11238;SDS011;5677;48.488;13.436;2023-07-31T06:04:10;3.10;;;1.83;;
11238;SDS011;5677;48.488;13.436;2023-07-31T06:06:37;2.83;;;1.60;;
11238;SDS011;5677;48.488;13.436;2023-07-31T06:09:04;2.47;;;1.80;;
11238;SDS011;5677;48.488;13.436;2023-07-31T06:11:32;4.57;;;1.60;;
11238;SDS011;5677;48.488;13.436;2023-07-31T06:13:58;5.23;;;1.90;;
11238;SDS011;5677;48.488;13.436;2023-07-31T06:16:25;5.70;;;2.17;;
11238;SDS011;5677;48.488;13.436;2023-07-31T06:18:53;2.80;;;1.80;;
11238;SDS011;5677;48.488;13.436;2023-07-31T06:21:20;3.43;;;1.87;;
11238;SDS011;5677;48.488;13.436;2023-07-31T06:23:47;2.23;;;1.93;;
11238;SDS011;5677;48.488;13.436;2023-07-31T06:26:14;5.47;;;2.17;;
11238;SDS011;5677;48.488;13.436;2023-07-31T06:28:41;3.17;;;2.00;;
11238;SDS011;5677;48.488;13.436;2023-07-31T06:31:08;2.77;;;1.57;;
11238;SDS011;5677;48.488;13.436;2023-07-31T06:33:35;6.67;;;1.90;;
11238;SDS011;5677;48.488;13.436;2023-07-31T06:36:03;4.33;;;2.00;;
11238;SDS011;5677;48.488;13.436;2023-07-31T06:38:30;3.17;;;1.70;;
11238;SDS011;5677;48.488;13.436;2023-07-31T06:40:57;4.53;;;1.80;;
11238;SDS011;5677;48.488;13.436;2023-07-31T06:43:24;2.07;;;1.83;;
11238;SDS011;5677;48.488;13.436;2023-07-31T06:45:51;3.27;;;1.60;;
11238;SDS011;5677;48.488;13.436;2023-07-31T06:48:18;3.93;;;1.83;;
11238;SDS011;5677;48.488;13.436;2023-07-31T06:50:44;2.87;;;1.73;;
11238;SDS011;5677;48.488;13.436;2023-07-31T06:53:12;5.23;;;2.13;;
11238;SDS011;5677;48.488;13.436;2023-07-31T06:55:39;2.23;;;1.67;;
11238;SDS011;5677;48.488;13.436;2023-07-31T06:58:06;3.50;;;1.80;;
11238;SDS011;5677;48.488;13.436;2023-07-31T07:00:33;3.10;;;1.80;;
11238;SDS011;5677;48.488;13.436;2023-07-31T07:02:59;2.27;;;1.70;;
11238;SDS011;5677;48.488;13.436;2023-07-31T07:05:26;3.20;;;1.90;;
11238;SDS011;5677;48.488;13.436;2023-07-31T07:07:53;3.70;;;1.67;;
11238;SDS011;5677;48.488;13.436;2023-07-31T07:10:21;2.47;;;1.67;;
11238;SDS011;5677;48.488;13.436;2023-07-31T07:12:48;2.30;;;1.60;;
11238;SDS011;5677;48.488;13.436;2023-07-31T07:15:15;4.43;;;2.10;;
11238;SDS011;5677;48.488;13.436;2023-07-31T07:17:41;3.30;;;1.60;;
11238;SDS011;5677;48.488;13.436;2023-07-31T07:20:08;1.60;;;1.50;;
11238;SDS011;5677;48.488;13.436;2023-07-31T07:25:58;1.83;;;1.50;;
11238;SDS011;5677;48.488;13.436;2023-07-31T07:28:25;2.20;;;1.70;;
11238;SDS011;5677;48.488;13.436;2023-07-31T07:30:53;2.53;;;1.80;;
11238;SDS011;5677;48.488;13.436;2023-07-31T07:33:20;3.37;;;2.07;;
11238;SDS011;5677;48.488;13.436;2023-07-31T07:35:47;2.50;;;1.80;;
11238;SDS011;5677;48.488;13.436;2023-07-31T07:38:13;3.60;;;1.80;;
11238;SDS011;5677;48.488;13.436;2023-07-31T07:40:41;2.73;;;1.67;;
11238;SDS011;5677;48.488;13.436;2023-07-31T07:43:09;2.57;;;1.93;;
11238;SDS011;5677;48.488;13.436;2023-07-31T07:45:36;2.67;;;1.43;;
11238;SDS011;5677;48.488;13.436;2023-07-31T07:48:03;3.60;;;1.90;;
11238;SDS011;5677;48.488;13.436;2023-07-31T07:50:30;3.43;;;1.90;;
11238;SDS011;5677;48.488;13.436;2023-07-31T07:52:57;4.23;;;1.90;;
11238;SDS011;5677;48.488;13.436;2023-07-31T07:55:24;2.77;;;1.80;;
11238;SDS011;5677;48.488;13.436;2023-07-31T07:57:50;4.00;;;1.83;;
11238;SDS011;5677;48.488;13.436;2023-07-31T08:00:18;3.47;;;2.10;;
11238;SDS011;5677;48.488;13.436;2023-07-31T08:06:07;2.73;;;2.00;;
11238;SDS011;5677;48.488;13.436;2023-07-31T08:08:34;4.50;;;1.80;;
11238;SDS011;5677;48.488;13.436;2023-07-31T08:11:01;3.27;;;2.00;;
11238;SDS011;5677;48.488;13.436;2023-07-31T08:13:28;3.97;;;1.97;;
11238;SDS011;5677;48.488;13.436;2023-07-31T08:15:56;1.90;;;1.70;;
11238;SDS011;5677;48.488;13.436;2023-07-31T08:18:23;3.20;;;2.00;;
11238;SDS011;5677;48.488;13.436;2023-07-31T08:20:50;3.73;;;1.87;;
11238;SDS011;5677;48.488;13.436;2023-07-31T08:23:17;2.97;;;2.03;;
11238;SDS011;5677;48.488;13.436;2023-07-31T08:25:44;4.37;;;1.77;;
11238;SDS011;5677;48.488;13.436;2023-07-31T08:28:11;3.30;;;2.20;;
11238;SDS011;5677;48.488;13.436;2023-07-31T08:30:38;2.37;;;2.00;;
11238;SDS011;5677;48.488;13.436;2023-07-31T08:33:06;8.30;;;2.40;;
11238;SDS011;5677;48.488;13.436;2023-07-31T08:35:32;6.00;;;2.23;;
11238;SDS011;5677;48.488;13.436;2023-07-31T08:37:59;4.90;;;2.10;;
11238;SDS011;5677;48.488;13.436;2023-07-31T08:40:26;4.73;;;2.20;;
11238;SDS011;5677;48.488;13.436;2023-07-31T08:42:55;4.07;;;2.07;;
11238;SDS011;5677;48.488;13.436;2023-07-31T08:45:27;4.17;;;2.00;;
11238;SDS011;5677;48.488;13.436;2023-07-31T08:47:54;3.70;;;1.90;;
11238;SDS011;5677;48.488;13.436;2023-07-31T08:50:23;3.93;;;1.80;;
11238;SDS011;5677;48.488;13.436;2023-07-31T08:52:50;3.47;;;1.70;;
11238;SDS011;5677;48.488;13.436;2023-07-31T08:55:18;4.60;;;2.00;;
11238;SDS011;5677;48.488;13.436;2023-07-31T08:57:48;4.10;;;2.00;;
11238;SDS011;5677;48.488;13.436;2023-07-31T09:00:16;3.27;;;1.60;;
11238;SDS011;5677;48.488;13.436;2023-07-31T09:06:08;5.07;;;1.87;;
11238;SDS011;5677;48.488;13.436;2023-07-31T09:08:36;14.07;;;3.00;;
11238;SDS011;5677;48.488;13.436;2023-07-31T09:11:07;4.90;;;2.23;;
11238;SDS011;5677;48.488;13.436;2023-07-31T09:13:34;8.73;;;2.17;;
11238;SDS011;5677;48.488;13.436;2023-07-31T09:16:01;6.03;;;2.13;;
11238;SDS011;5677;48.488;13.436;2023-07-31T09:18:28;6.10;;;1.83;;
11238;SDS011;5677;48.488;13.436;2023-07-31T09:21:01;4.83;;;2.13;;
11238;SDS011;5677;48.488;13.436;2023-07-31T09:23:40;6.60;;;2.07;;
11238;SDS011;5677;48.488;13.436;2023-07-31T09:26:08;4.00;;;1.87;;
11238;SDS011;5677;48.488;13.436;2023-07-31T09:28:35;2.50;;;1.77;;
11238;SDS011;5677;48.488;13.436;2023-07-31T09:31:02;6.30;;;2.17;;
11238;SDS011;5677;48.488;13.436;2023-07-31T09:33:29;4.30;;;1.73;;
11238;SDS011;5677;48.488;13.436;2023-07-31T09:35:56;4.20;;;1.97;;
11238;SDS011;5677;48.488;13.436;2023-07-31T09:38:24;7.13;;;2.30;;
11238;SDS011;5677;48.488;13.436;2023-07-31T09:40:52;5.47;;;2.33;;
11238;SDS011;5677;48.488;13.436;2023-07-31T09:43:20;6.10;;;2.47;;
11238;SDS011;5677;48.488;13.436;2023-07-31T09:45:53;6.80;;;2.63;;
11238;SDS011;5677;48.488;13.436;2023-07-31T09:48:23;4.30;;;1.90;;
11238;SDS011;5677;48.488;13.436;2023-07-31T09:50:52;5.33;;;2.30;;
11238;SDS011;5677;48.488;13.436;2023-07-31T09:53:20;3.77;;;2.10;;
11238;SDS011;5677;48.488;13.436;2023-07-31T09:55:56;6.17;;;2.43;;
11238;SDS011;5677;48.488;13.436;2023-07-31T09:58:24;5.17;;;2.40;;
11238;SDS011;5677;48.488;13.436;2023-07-31T10:00:54;8.30;;;3.00;;
11238;SDS011;5677;48.488;13.436;2023-07-31T10:03:23;4.63;;;2.60;;
11238;SDS011;5677;48.488;13.436;2023-07-31T10:05:51;7.50;;;2.87;;
11238;SDS011;5677;48.488;13.436;2023-07-31T10:08:23;8.27;;;3.43;;
11238;SDS011;5677;48.488;13.436;2023-07-31T10:10:57;7.60;;;2.90;;
11238;SDS011;5677;48.488;13.436;2023-07-31T10:13:25;7.53;;;3.27;;
11238;SDS011;5677;48.488;13.436;2023-07-31T10:15:53;4.63;;;2.40;;
11238;SDS011;5677;48.488;13.436;2023-07-31T10:18:24;5.27;;;2.93;;
11238;SDS011;5677;48.488;13.436;2023-07-31T10:20:52;7.03;;;2.70;;
11238;SDS011;5677;48.488;13.436;2023-07-31T10:23:20;5.60;;;2.80;;
11238;SDS011;5677;48.488;13.436;2023-07-31T10:25:48;4.87;;;2.90;;
11238;SDS011;5677;48.488;13.436;2023-07-31T10:28:20;5.17;;;3.10;;
11238;SDS011;5677;48.488;13.436;2023-07-31T10:30:47;5.63;;;3.30;;
11238;SDS011;5677;48.488;13.436;2023-07-31T10:33:15;5.57;;;2.83;;
11238;SDS011;5677;48.488;13.436;2023-07-31T10:35:42;4.53;;;2.50;;
11238;SDS011;5677;48.488;13.436;2023-07-31T10:38:09;6.87;;;3.03;;
11238;SDS011;5677;48.488;13.436;2023-07-31T10:40:37;6.23;;;2.20;;
11238;SDS011;5677;48.488;13.436;2023-07-31T10:43:04;4.97;;;3.10;;
11238;SDS011;5677;48.488;13.436;2023-07-31T10:45:35;6.53;;;2.67;;
11238;SDS011;5677;48.488;13.436;2023-07-31T10:48:04;4.87;;;2.83;;
11238;SDS011;5677;48.488;13.436;2023-07-31T10:50:32;5.67;;;2.70;;
11238;SDS011;5677;48.488;13.436;2023-07-31T10:53:02;5.73;;;3.17;;
11238;SDS011;5677;48.488;13.436;2023-07-31T10:55:30;5.63;;;2.73;;
11238;SDS011;5677;48.488;13.436;2023-07-31T10:58:05;6.03;;;2.60;;
11238;SDS011;5677;48.488;13.436;2023-07-31T11:00:36;5.20;;;2.33;;
11238;SDS011;5677;48.488;13.436;2023-07-31T11:03:04;4.10;;;2.57;;
11238;SDS011;5677;48.488;13.436;2023-07-31T11:05:41;4.77;;;2.67;;
11238;SDS011;5677;48.488;13.436;2023-07-31T11:08:13;5.07;;;2.40;;
11238;SDS011;5677;48.488;13.436;2023-07-31T11:10:41;4.47;;;2.30;;
11238;SDS011;5677;48.488;13.436;2023-07-31T11:13:09;6.70;;;2.73;;
11238;SDS011;5677;48.488;13.436;2023-07-31T11:15:37;7.40;;;2.80;;
11238;SDS011;5677;48.488;13.436;2023-07-31T11:18:04;4.90;;;2.60;;
11238;SDS011;5677;48.488;13.436;2023-07-31T11:20:33;5.53;;;2.40;;
11238;SDS011;5677;48.488;13.436;2023-07-31T11:23:02;4.60;;;2.63;;
11238;SDS011;5677;48.488;13.436;2023-07-31T11:25:30;5.30;;;2.60;;
11238;SDS011;5677;48.488;13.436;2023-07-31T11:27:57;4.47;;;2.60;;
11238;SDS011;5677;48.488;13.436;2023-07-31T11:30:29;4.23;;;2.27;;
11238;SDS011;5677;48.488;13.436;2023-07-31T11:32:57;6.10;;;2.33;;
11238;SDS011;5677;48.488;13.436;2023-07-31T11:35:24;4.80;;;2.40;;
11238;SDS011;5677;48.488;13.436;2023-07-31T11:37:51;4.70;;;2.43;;
11238;SDS011;5677;48.488;13.436;2023-07-31T11:40:17;3.47;;;2.00;;
11238;SDS011;5677;48.488;13.436;2023-07-31T11:42:45;4.27;;;2.33;;
11238;SDS011;5677;48.488;13.436;2023-07-31T11:45:11;3.03;;;2.20;;
11238;SDS011;5677;48.488;13.436;2023-07-31T11:47:38;3.53;;;2.43;;
11238;SDS011;5677;48.488;13.436;2023-07-31T11:50:10;3.40;;;2.07;;
11238;SDS011;5677;48.488;13.436;2023-07-31T11:52:39;5.00;;;2.60;;
11238;SDS011;5677;48.488;13.436;2023-07-31T11:55:07;4.37;;;2.23;;
11238;SDS011;5677;48.488;13.436;2023-07-31T11:57:36;4.63;;;2.47;;
11238;SDS011;5677;48.488;13.436;2023-07-31T12:00:05;5.13;;;2.23;;
11238;SDS011;5677;48.488;13.436;2023-07-31T12:02:34;2.73;;;2.17;;
11238;SDS011;5677;48.488;13.436;2023-07-31T12:05:01;4.00;;;2.03;;
11238;SDS011;5677;48.488;13.436;2023-07-31T12:10:22;4.50;;;2.60;;
11238;SDS011;5677;48.488;13.436;2023-07-31T12:12:59;3.70;;;2.17;;
11238;SDS011;5677;48.488;13.436;2023-07-31T12:15:37;4.73;;;2.43;;
11238;SDS011;5677;48.488;13.436;2023-07-31T12:18:06;3.97;;;2.37;;
11238;SDS011;5677;48.488;13.436;2023-07-31T12:20:33;3.77;;;2.50;;
11238;SDS011;5677;48.488;13.436;2023-07-31T12:23:02;3.87;;;2.23;;
11238;SDS011;5677;48.488;13.436;2023-07-31T12:25:32;3.93;;;2.33;;
11238;SDS011;5677;48.488;13.436;2023-07-31T12:28:04;4.60;;;2.27;;
11238;SDS011;5677;48.488;13.436;2023-07-31T12:30:36;4.17;;;2.70;;
11238;SDS011;5677;48.488;13.436;2023-07-31T12:33:03;2.90;;;2.30;;
11238;SDS011;5677;48.488;13.436;2023-07-31T12:38:14;4.57;;;2.23;;
11238;SDS011;5677;48.488;13.436;2023-07-31T12:40:41;3.33;;;2.30;;
11238;SDS011;5677;48.488;13.436;2023-07-31T12:43:08;4.17;;;2.20;;
11238;SDS011;5677;48.488;13.436;2023-07-31T12:45:35;2.67;;;1.90;;
11238;SDS011;5677;48.488;13.436;2023-07-31T12:48:02;3.53;;;2.00;;
11238;SDS011;5677;48.488;13.436;2023-07-31T12:50:29;4.03;;;2.33;;
11238;SDS011;5677;48.488;13.436;2023-07-31T12:52:56;5.00;;;2.23;;
11238;SDS011;5677;48.488;13.436;2023-07-31T12:55:24;2.77;;;1.90;;
11238;SDS011;5677;48.488;13.436;2023-07-31T12:57:51;4.63;;;2.20;;
11238;SDS011;5677;48.488;13.436;2023-07-31T13:00:18;4.37;;;2.40;;
11238;SDS011;5677;48.488;13.436;2023-07-31T13:02:45;6.10;;;2.40;;
11238;SDS011;5677;48.488;13.436;2023-07-31T13:05:11;3.87;;;2.60;;
11238;SDS011;5677;48.488;13.436;2023-07-31T13:07:39;3.47;;;2.30;;
11238;SDS011;5677;48.488;13.436;2023-07-31T13:10:06;2.20;;;2.00;;
11238;SDS011;5677;48.488;13.436;2023-07-31T13:12:35;4.93;;;2.20;;
11238;SDS011;5677;48.488;13.436;2023-07-31T13:15:02;2.80;;;1.93;;
11238;SDS011;5677;48.488;13.436;2023-07-31T13:17:29;2.60;;;2.13;;
11238;SDS011;5677;48.488;13.436;2023-07-31T13:19:56;4.13;;;2.00;;
11238;SDS011;5677;48.488;13.436;2023-07-31T13:22:22;4.10;;;2.30;;
11238;SDS011;5677;48.488;13.436;2023-07-31T13:24:49;3.50;;;2.07;;
11238;SDS011;5677;48.488;13.436;2023-07-31T13:27:16;2.63;;;2.00;;
11238;SDS011;5677;48.488;13.436;2023-07-31T13:29:45;6.17;;;2.40;;
11238;SDS011;5677;48.488;13.436;2023-07-31T13:32:12;4.47;;;2.37;;
11238;SDS011;5677;48.488;13.436;2023-07-31T13:34:39;2.43;;;2.00;;
11238;SDS011;5677;48.488;13.436;2023-07-31T13:37:06;5.77;;;2.43;;
11238;SDS011;5677;48.488;13.436;2023-07-31T13:39:32;2.20;;;2.00;;
11238;SDS011;5677;48.488;13.436;2023-07-31T13:41:59;2.20;;;1.93;;
11238;SDS011;5677;48.488;13.436;2023-07-31T13:44:26;5.10;;;2.20;;
11238;SDS011;5677;48.488;13.436;2023-07-31T13:46:54;4.37;;;2.00;;
11238;SDS011;5677;48.488;13.436;2023-07-31T13:49:21;3.10;;;2.27;;
11238;SDS011;5677;48.488;13.436;2023-07-31T13:51:48;3.80;;;1.87;;
11238;SDS011;5677;48.488;13.436;2023-07-31T13:54:15;2.20;;;2.00;;
11238;SDS011;5677;48.488;13.436;2023-07-31T13:56:42;2.63;;;2.07;;
11238;SDS011;5677;48.488;13.436;2023-07-31T13:59:10;2.50;;;1.73;;
11238;SDS011;5677;48.488;13.436;2023-07-31T14:01:37;2.50;;;1.80;;
11238;SDS011;5677;48.488;13.436;2023-07-31T14:04:05;2.00;;;1.80;;
11238;SDS011;5677;48.488;13.436;2023-07-31T14:06:32;2.50;;;1.80;;
11238;SDS011;5677;48.488;13.436;2023-07-31T14:08:58;3.03;;;1.80;;
11238;SDS011;5677;48.488;13.436;2023-07-31T14:11:25;2.40;;;1.80;;
11238;SDS011;5677;48.488;13.436;2023-07-31T14:13:52;2.33;;;1.77;;
11238;SDS011;5677;48.488;13.436;2023-07-31T14:16:19;2.23;;;1.63;;
11238;SDS011;5677;48.488;13.436;2023-07-31T14:18:46;2.60;;;2.23;;
11238;SDS011;5677;48.488;13.436;2023-07-31T14:21:14;3.77;;;1.87;;
11238;SDS011;5677;48.488;13.436;2023-07-31T14:23:41;3.23;;;1.73;;
11238;SDS011;5677;48.488;13.436;2023-07-31T14:26:08;4.67;;;2.00;;
11238;SDS011;5677;48.488;13.436;2023-07-31T14:28:35;2.20;;;1.87;;
11238;SDS011;5677;48.488;13.436;2023-07-31T14:31:01;3.80;;;1.90;;
11238;SDS011;5677;48.488;13.436;2023-07-31T14:33:28;2.87;;;2.00;;
11238;SDS011;5677;48.488;13.436;2023-07-31T14:35:55;3.30;;;1.83;;
11238;SDS011;5677;48.488;13.436;2023-07-31T14:38:23;3.53;;;1.93;;
11238;SDS011;5677;48.488;13.436;2023-07-31T14:40:50;2.43;;;2.17;;
11238;SDS011;5677;48.488;13.436;2023-07-31T14:43:17;4.03;;;1.97;;
11238;SDS011;5677;48.488;13.436;2023-07-31T14:45:44;3.17;;;1.80;;
11238;SDS011;5677;48.488;13.436;2023-07-31T14:48:11;2.63;;;2.00;;
11238;SDS011;5677;48.488;13.436;2023-07-31T14:50:39;2.00;;;1.70;;
11238;SDS011;5677;48.488;13.436;2023-07-31T14:53:05;2.40;;;1.93;;
11238;SDS011;5677;48.488;13.436;2023-07-31T14:55:34;2.13;;;1.80;;
11238;SDS011;5677;48.488;13.436;2023-07-31T14:58:00;1.93;;;1.77;;
11238;SDS011;5677;48.488;13.436;2023-07-31T15:00:28;2.30;;;1.87;;
11238;SDS011;5677;48.488;13.436;2023-07-31T15:02:54;1.77;;;1.60;;
11238;SDS011;5677;48.488;13.436;2023-07-31T15:05:21;1.93;;;1.60;;
11238;SDS011;5677;48.488;13.436;2023-07-31T15:07:48;1.97;;;1.77;;
11238;SDS011;5677;48.488;13.436;2023-07-31T15:10:15;3.27;;;1.93;;
11238;SDS011;5677;48.488;13.436;2023-07-31T15:12:43;2.67;;;1.77;;